< < Back
Terminal Aerodrome Forecast


Current Version              Previous Versions:   1  2  3  4  5  6  7  8  9  

Terminal Aerodrome Forecast

937
FTUS42 KCAE 301159 AAB
TAFCAE
TAF AMD
KCAE 301159Z 3012/3112 VRB03KT P6SM SCT040 BKN080
     FM301500 05007KT P6SM BKN035
     FM310000 VRB03KT P6SM SCT200=

Latest METAR

102
SAUS80 KWBC 301300
MTRCAE
METAR KCAE 301256Z 03004KT 10SM FEW050 BKN095 24/21 A3008 RMK AO2
RAB08E44 SLP184 P0000 T02440211


USA.gov is the U.S. government's official web portal to all federal, state and local government web resources and services.